sensor_id;sensor_type;location;lat;lon;timestamp;P1;durP1;ratioP1;P2;durP2;ratioP2
325;SDS011;150;52.352;14.058;2024-03-08T00:00:58;19.13;;;11.00;;
325;SDS011;150;52.352;14.058;2024-03-08T00:03:25;15.40;;;10.93;;
325;SDS011;150;52.352;14.058;2024-03-08T00:05:51;15.48;;;9.95;;
325;SDS011;150;52.352;14.058;2024-03-08T00:08:19;15.68;;;10.23;;
325;SDS011;150;52.352;14.058;2024-03-08T00:10:46;14.02;;;10.52;;
325;SDS011;150;52.352;14.058;2024-03-08T00:13:12;16.70;;;11.35;;
325;SDS011;150;52.352;14.058;2024-03-08T00:15:39;15.18;;;10.20;;
325;SDS011;150;52.352;14.058;2024-03-08T00:18:06;15.30;;;10.48;;
325;SDS011;150;52.352;14.058;2024-03-08T00:20:33;16.33;;;11.15;;
325;SDS011;150;52.352;14.058;2024-03-08T00:22:59;16.88;;;9.70;;
325;SDS011;150;52.352;14.058;2024-03-08T00:25:27;14.88;;;10.60;;
325;SDS011;150;52.352;14.058;2024-03-08T00:27:54;17.33;;;10.80;;
325;SDS011;150;52.352;14.058;2024-03-08T00:30:21;16.05;;;10.43;;
325;SDS011;150;52.352;14.058;2024-03-08T00:32:50;13.70;;;10.80;;
325;SDS011;150;52.352;14.058;2024-03-08T00:35:16;15.43;;;10.82;;
325;SDS011;150;52.352;14.058;2024-03-08T00:37:43;13.15;;;9.23;;
325;SDS011;150;52.352;14.058;2024-03-08T00:40:11;15.05;;;10.38;;
325;SDS011;150;52.352;14.058;2024-03-08T00:42:40;15.52;;;10.70;;
325;SDS011;150;52.352;14.058;2024-03-08T00:45:08;16.00;;;10.13;;
325;SDS011;150;52.352;14.058;2024-03-08T00:47:36;13.70;;;10.93;;
325;SDS011;150;52.352;14.058;2024-03-08T00:50:02;18.30;;;11.90;;
325;SDS011;150;52.352;14.058;2024-03-08T00:52:29;17.70;;;10.73;;
325;SDS011;150;52.352;14.058;2024-03-08T00:54:56;13.43;;;9.70;;
325;SDS011;150;52.352;14.058;2024-03-08T00:57:23;17.33;;;10.90;;
325;SDS011;150;52.352;14.058;2024-03-08T00:59:50;17.60;;;10.10;;
325;SDS011;150;52.352;14.058;2024-03-08T01:02:17;14.20;;;9.73;;
325;SDS011;150;52.352;14.058;2024-03-08T01:04:44;16.27;;;10.40;;
325;SDS011;150;52.352;14.058;2024-03-08T01:07:12;17.08;;;9.57;;
325;SDS011;150;52.352;14.058;2024-03-08T01:09:38;20.10;;;15.85;;
325;SDS011;150;52.352;14.058;2024-03-08T01:12:05;21.30;;;16.43;;
325;SDS011;150;52.352;14.058;2024-03-08T01:14:33;13.98;;;10.98;;
325;SDS011;150;52.352;14.058;2024-03-08T01:17:00;12.82;;;9.38;;
325;SDS011;150;52.352;14.058;2024-03-08T01:19:27;15.23;;;9.57;;
325;SDS011;150;52.352;14.058;2024-03-08T01:21:54;19.90;;;11.38;;
325;SDS011;150;52.352;14.058;2024-03-08T01:24:21;17.77;;;11.38;;
325;SDS011;150;52.352;14.058;2024-03-08T01:26:48;13.40;;;10.07;;
325;SDS011;150;52.352;14.058;2024-03-08T01:29:15;13.60;;;9.57;;
325;SDS011;150;52.352;14.058;2024-03-08T01:31:41;16.05;;;9.25;;
325;SDS011;150;52.352;14.058;2024-03-08T01:34:10;16.02;;;9.85;;
325;SDS011;150;52.352;14.058;2024-03-08T01:36:36;15.93;;;10.57;;
325;SDS011;150;52.352;14.058;2024-03-08T01:39:03;14.57;;;10.20;;
325;SDS011;150;52.352;14.058;2024-03-08T01:41:32;13.90;;;9.80;;
325;SDS011;150;52.352;14.058;2024-03-08T01:44:00;17.08;;;9.85;;
325;SDS011;150;52.352;14.058;2024-03-08T01:46:27;15.57;;;10.27;;
325;SDS011;150;52.352;14.058;2024-03-08T01:48:55;22.00;;;12.52;;
325;SDS011;150;52.352;14.058;2024-03-08T01:51:25;16.15;;;10.98;;
325;SDS011;150;52.352;14.058;2024-03-08T01:53:53;15.20;;;10.50;;
325;SDS011;150;52.352;14.058;2024-03-08T01:56:23;12.73;;;9.50;;
325;SDS011;150;52.352;14.058;2024-03-08T01:58:51;15.50;;;10.27;;
325;SDS011;150;52.352;14.058;2024-03-08T02:01:18;18.45;;;11.20;;
325;SDS011;150;52.352;14.058;2024-03-08T02:03:45;12.90;;;8.68;;
325;SDS011;150;52.352;14.058;2024-03-08T02:06:11;14.60;;;9.35;;
325;SDS011;150;52.352;14.058;2024-03-08T02:08:40;14.07;;;8.82;;
325;SDS011;150;52.352;14.058;2024-03-08T02:11:08;13.43;;;9.50;;
325;SDS011;150;52.352;14.058;2024-03-08T02:13:35;16.27;;;10.60;;
325;SDS011;150;52.352;14.058;2024-03-08T02:16:02;15.48;;;10.00;;
325;SDS011;150;52.352;14.058;2024-03-08T02:18:31;16.40;;;9.98;;
325;SDS011;150;52.352;14.058;2024-03-08T02:21:01;13.20;;;9.85;;
325;SDS011;150;52.352;14.058;2024-03-08T02:23:28;17.58;;;9.68;;
325;SDS011;150;52.352;14.058;2024-03-08T02:25:56;15.30;;;10.63;;
325;SDS011;150;52.352;14.058;2024-03-08T02:28:23;17.40;;;10.70;;
325;SDS011;150;52.352;14.058;2024-03-08T02:30:50;12.35;;;8.45;;
325;SDS011;150;52.352;14.058;2024-03-08T02:33:19;19.73;;;10.00;;
325;SDS011;150;52.352;14.058;2024-03-08T02:35:46;11.15;;;7.93;;
325;SDS011;150;52.352;14.058;2024-03-08T02:38:15;13.77;;;9.60;;
325;SDS011;150;52.352;14.058;2024-03-08T02:40:43;12.82;;;8.63;;
325;SDS011;150;52.352;14.058;2024-03-08T02:43:11;12.87;;;9.40;;
325;SDS011;150;52.352;14.058;2024-03-08T02:45:38;15.68;;;9.38;;
325;SDS011;150;52.352;14.058;2024-03-08T02:48:05;12.98;;;9.65;;
325;SDS011;150;52.352;14.058;2024-03-08T02:50:32;12.13;;;8.25;;
325;SDS011;150;52.352;14.058;2024-03-08T02:52:59;12.90;;;9.23;;
325;SDS011;150;52.352;14.058;2024-03-08T02:55:27;17.20;;;9.02;;
325;SDS011;150;52.352;14.058;2024-03-08T02:57:54;11.80;;;9.52;;
325;SDS011;150;52.352;14.058;2024-03-08T03:00:21;10.40;;;8.00;;
325;SDS011;150;52.352;14.058;2024-03-08T03:02:49;14.18;;;9.02;;
325;SDS011;150;52.352;14.058;2024-03-08T03:05:18;15.88;;;9.38;;
325;SDS011;150;52.352;14.058;2024-03-08T03:07:45;11.52;;;8.45;;
325;SDS011;150;52.352;14.058;2024-03-08T03:10:12;12.52;;;7.32;;
325;SDS011;150;52.352;14.058;2024-03-08T03:12:43;14.95;;;8.88;;
325;SDS011;150;52.352;14.058;2024-03-08T03:15:10;12.75;;;8.65;;
325;SDS011;150;52.352;14.058;2024-03-08T03:17:37;16.87;;;10.23;;
325;SDS011;150;52.352;14.058;2024-03-08T03:20:05;15.18;;;8.57;;
325;SDS011;150;52.352;14.058;2024-03-08T03:22:36;13.60;;;8.18;;
325;SDS011;150;52.352;14.058;2024-03-08T03:25:03;16.83;;;9.35;;
325;SDS011;150;52.352;14.058;2024-03-08T03:27:31;16.20;;;9.80;;
325;SDS011;150;52.352;14.058;2024-03-08T03:29:59;12.45;;;7.25;;
325;SDS011;150;52.352;14.058;2024-03-08T03:32:45;14.98;;;8.50;;
325;SDS011;150;52.352;14.058;2024-03-08T03:35:12;18.30;;;8.60;;
325;SDS011;150;52.352;14.058;2024-03-08T03:37:40;13.55;;;8.23;;
325;SDS011;150;52.352;14.058;2024-03-08T03:40:08;10.35;;;7.78;;
325;SDS011;150;52.352;14.058;2024-03-08T03:42:35;11.68;;;7.28;;
325;SDS011;150;52.352;14.058;2024-03-08T03:45:05;12.10;;;7.70;;
325;SDS011;150;52.352;14.058;2024-03-08T03:47:32;15.90;;;8.50;;
325;SDS011;150;52.352;14.058;2024-03-08T03:49:58;15.52;;;7.85;;
325;SDS011;150;52.352;14.058;2024-03-08T03:52:27;11.98;;;7.32;;
325;SDS011;150;52.352;14.058;2024-03-08T03:54:53;13.55;;;8.45;;
325;SDS011;150;52.352;14.058;2024-03-08T03:57:20;18.70;;;7.63;;
325;SDS011;150;52.352;14.058;2024-03-08T03:59:48;13.27;;;8.60;;
325;SDS011;150;52.352;14.058;2024-03-08T04:02:17;16.70;;;9.27;;
325;SDS011;150;52.352;14.058;2024-03-08T04:04:45;15.75;;;9.07;;
325;SDS011;150;52.352;14.058;2024-03-08T04:07:12;13.27;;;8.82;;
325;SDS011;150;52.352;14.058;2024-03-08T04:09:39;11.57;;;8.93;;
325;SDS011;150;52.352;14.058;2024-03-08T04:12:06;11.35;;;7.90;;
325;SDS011;150;52.352;14.058;2024-03-08T04:14:34;10.93;;;7.20;;
325;SDS011;150;52.352;14.058;2024-03-08T04:17:01;10.02;;;7.68;;
325;SDS011;150;52.352;14.058;2024-03-08T04:19:29;11.45;;;8.52;;
325;SDS011;150;52.352;14.058;2024-03-08T04:21:56;15.30;;;9.70;;
325;SDS011;150;52.352;14.058;2024-03-08T04:24:23;14.98;;;9.70;;
325;SDS011;150;52.352;14.058;2024-03-08T04:26:49;16.95;;;10.00;;
325;SDS011;150;52.352;14.058;2024-03-08T04:29:16;12.57;;;9.20;;
325;SDS011;150;52.352;14.058;2024-03-08T04:31:43;19.88;;;9.70;;
325;SDS011;150;52.352;14.058;2024-03-08T04:34:09;14.90;;;10.05;;
325;SDS011;150;52.352;14.058;2024-03-08T04:36:37;16.98;;;10.02;;
325;SDS011;150;52.352;14.058;2024-03-08T04:39:04;16.50;;;8.25;;
325;SDS011;150;52.352;14.058;2024-03-08T04:41:30;12.75;;;8.43;;
325;SDS011;150;52.352;14.058;2024-03-08T04:43:59;14.27;;;8.93;;
325;SDS011;150;52.352;14.058;2024-03-08T04:46:26;10.90;;;7.22;;
325;SDS011;150;52.352;14.058;2024-03-08T04:48:53;16.52;;;8.52;;
325;SDS011;150;52.352;14.058;2024-03-08T04:51:20;12.40;;;8.20;;
325;SDS011;150;52.352;14.058;2024-03-08T04:53:48;15.18;;;8.73;;
325;SDS011;150;52.352;14.058;2024-03-08T04:56:14;14.50;;;9.13;;
325;SDS011;150;52.352;14.058;2024-03-08T04:58:41;16.17;;;8.07;;
325;SDS011;150;52.352;14.058;2024-03-08T05:01:08;11.02;;;6.82;;
325;SDS011;150;52.352;14.058;2024-03-08T05:03:35;10.32;;;7.07;;
325;SDS011;150;52.352;14.058;2024-03-08T05:06:03;12.40;;;7.50;;
325;SDS011;150;52.352;14.058;2024-03-08T05:08:30;9.15;;;7.38;;
325;SDS011;150;52.352;14.058;2024-03-08T05:10:59;13.38;;;8.32;;
325;SDS011;150;52.352;14.058;2024-03-08T05:13:28;13.40;;;8.95;;
325;SDS011;150;52.352;14.058;2024-03-08T05:15:55;12.82;;;8.95;;
325;SDS011;150;52.352;14.058;2024-03-08T05:18:23;17.23;;;8.88;;
325;SDS011;150;52.352;14.058;2024-03-08T05:20:50;11.48;;;8.55;;
325;SDS011;150;52.352;14.058;2024-03-08T05:23:16;13.02;;;7.40;;
325;SDS011;150;52.352;14.058;2024-03-08T05:25:44;11.82;;;7.90;;
325;SDS011;150;52.352;14.058;2024-03-08T05:28:13;16.13;;;9.00;;
325;SDS011;150;52.352;14.058;2024-03-08T05:30:39;13.77;;;8.35;;
325;SDS011;150;52.352;14.058;2024-03-08T05:33:06;11.55;;;7.93;;
325;SDS011;150;52.352;14.058;2024-03-08T05:35:35;20.52;;;8.60;;
325;SDS011;150;52.352;14.058;2024-03-08T05:38:01;13.60;;;9.63;;
325;SDS011;150;52.352;14.058;2024-03-08T05:40:28;16.98;;;7.65;;
325;SDS011;150;52.352;14.058;2024-03-08T05:42:56;11.05;;;8.05;;
325;SDS011;150;52.352;14.058;2024-03-08T05:45:24;12.97;;;8.73;;
325;SDS011;150;52.352;14.058;2024-03-08T05:47:51;10.35;;;9.30;;
325;SDS011;150;52.352;14.058;2024-03-08T05:50:18;14.00;;;8.30;;
325;SDS011;150;52.352;14.058;2024-03-08T05:52:44;12.82;;;8.65;;
325;SDS011;150;52.352;14.058;2024-03-08T05:55:12;15.07;;;8.82;;
325;SDS011;150;52.352;14.058;2024-03-08T05:57:39;16.10;;;9.52;;
325;SDS011;150;52.352;14.058;2024-03-08T06:00:07;15.10;;;10.98;;
325;SDS011;150;52.352;14.058;2024-03-08T06:02:37;15.32;;;9.15;;
325;SDS011;150;52.352;14.058;2024-03-08T06:05:06;18.05;;;9.88;;
325;SDS011;150;52.352;14.058;2024-03-08T06:07:34;13.35;;;9.32;;
325;SDS011;150;52.352;14.058;2024-03-08T06:10:00;13.00;;;9.95;;
325;SDS011;150;52.352;14.058;2024-03-08T06:12:28;15.48;;;8.57;;
325;SDS011;150;52.352;14.058;2024-03-08T06:14:58;13.27;;;8.50;;
325;SDS011;150;52.352;14.058;2024-03-08T06:17:25;13.77;;;9.35;;
325;SDS011;150;52.352;14.058;2024-03-08T06:19:52;13.23;;;9.75;;
325;SDS011;150;52.352;14.058;2024-03-08T06:22:19;21.08;;;10.77;;
325;SDS011;150;52.352;14.058;2024-03-08T06:24:45;15.25;;;9.98;;
325;SDS011;150;52.352;14.058;2024-03-08T06:27:12;16.02;;;9.82;;
325;SDS011;150;52.352;14.058;2024-03-08T06:29:39;9.65;;;8.40;;
325;SDS011;150;52.352;14.058;2024-03-08T06:32:06;16.43;;;10.23;;
325;SDS011;150;52.352;14.058;2024-03-08T06:34:32;18.38;;;13.20;;
325;SDS011;150;52.352;14.058;2024-03-08T06:37:00;20.55;;;11.57;;
325;SDS011;150;52.352;14.058;2024-03-08T06:39:27;20.73;;;12.30;;
325;SDS011;150;52.352;14.058;2024-03-08T06:41:56;21.60;;;13.45;;
325;SDS011;150;52.352;14.058;2024-03-08T06:44:23;22.65;;;14.13;;
325;SDS011;150;52.352;14.058;2024-03-08T06:46:50;17.67;;;12.60;;
325;SDS011;150;52.352;14.058;2024-03-08T06:49:17;20.70;;;11.85;;
325;SDS011;150;52.352;14.058;2024-03-08T06:51:44;18.88;;;12.05;;
325;SDS011;150;52.352;14.058;2024-03-08T06:54:12;17.67;;;11.47;;
325;SDS011;150;52.352;14.058;2024-03-08T06:56:39;13.40;;;10.23;;
325;SDS011;150;52.352;14.058;2024-03-08T06:59:05;15.80;;;10.38;;
325;SDS011;150;52.352;14.058;2024-03-08T07:01:35;20.13;;;10.77;;
325;SDS011;150;52.352;14.058;2024-03-08T07:04:02;16.17;;;9.73;;
325;SDS011;150;52.352;14.058;2024-03-08T07:06:30;23.30;;;10.23;;
325;SDS011;150;52.352;14.058;2024-03-08T07:08:58;15.33;;;9.83;;
325;SDS011;150;52.352;14.058;2024-03-08T07:11:26;20.15;;;12.43;;
325;SDS011;150;52.352;14.058;2024-03-08T07:13:53;11.88;;;9.65;;
325;SDS011;150;52.352;14.058;2024-03-08T07:16:20;17.85;;;10.20;;
325;SDS011;150;52.352;14.058;2024-03-08T07:18:46;24.10;;;12.77;;
325;SDS011;150;52.352;14.058;2024-03-08T07:21:13;18.13;;;10.10;;
325;SDS011;150;52.352;14.058;2024-03-08T07:23:40;17.95;;;10.70;;
325;SDS011;150;52.352;14.058;2024-03-08T07:26:20;19.45;;;12.52;;
325;SDS011;150;52.352;14.058;2024-03-08T07:28:49;20.15;;;12.25;;
325;SDS011;150;52.352;14.058;2024-03-08T07:31:15;18.38;;;11.65;;
325;SDS011;150;52.352;14.058;2024-03-08T07:33:51;16.63;;;11.48;;
325;SDS011;150;52.352;14.058;2024-03-08T07:36:19;24.90;;;11.48;;
325;SDS011;150;52.352;14.058;2024-03-08T07:38:47;16.17;;;11.77;;
325;SDS011;150;52.352;14.058;2024-03-08T07:41:14;23.73;;;12.23;;
325;SDS011;150;52.352;14.058;2024-03-08T07:43:41;14.63;;;9.95;;
325;SDS011;150;52.352;14.058;2024-03-08T07:46:10;19.23;;;11.30;;
325;SDS011;150;52.352;14.058;2024-03-08T07:48:38;19.93;;;12.20;;
325;SDS011;150;52.352;14.058;2024-03-08T07:51:05;15.75;;;11.43;;
325;SDS011;150;52.352;14.058;2024-03-08T07:53:33;17.27;;;11.32;;
325;SDS011;150;52.352;14.058;2024-03-08T07:55:59;17.98;;;11.35;;
325;SDS011;150;52.352;14.058;2024-03-08T07:58:26;22.20;;;13.27;;
325;SDS011;150;52.352;14.058;2024-03-08T08:00:53;17.02;;;10.57;;
325;SDS011;150;52.352;14.058;2024-03-08T08:03:21;22.65;;;12.75;;
325;SDS011;150;52.352;14.058;2024-03-08T08:05:47;23.35;;;12.57;;
325;SDS011;150;52.352;14.058;2024-03-08T08:08:14;19.60;;;10.95;;
325;SDS011;150;52.352;14.058;2024-03-08T08:10:41;21.90;;;13.88;;
325;SDS011;150;52.352;14.058;2024-03-08T08:13:07;17.38;;;12.13;;
325;SDS011;150;52.352;14.058;2024-03-08T08:15:34;18.83;;;11.38;;
325;SDS011;150;52.352;14.058;2024-03-08T08:18:00;19.50;;;13.48;;
325;SDS011;150;52.352;14.058;2024-03-08T08:20:29;21.92;;;13.48;;
325;SDS011;150;52.352;14.058;2024-03-08T08:22:56;20.97;;;13.30;;
325;SDS011;150;52.352;14.058;2024-03-08T08:25:24;19.52;;;12.77;;
325;SDS011;150;52.352;14.058;2024-03-08T08:27:50;21.88;;;13.52;;
325;SDS011;150;52.352;14.058;2024-03-08T08:30:18;16.85;;;11.45;;
325;SDS011;150;52.352;14.058;2024-03-08T08:32:45;22.90;;;13.88;;
325;SDS011;150;52.352;14.058;2024-03-08T08:35:13;21.33;;;13.23;;
325;SDS011;150;52.352;14.058;2024-03-08T08:37:41;16.95;;;12.20;;
325;SDS011;150;52.352;14.058;2024-03-08T08:40:09;27.65;;;14.35;;
325;SDS011;150;52.352;14.058;2024-03-08T08:42:39;19.80;;;12.10;;
325;SDS011;150;52.352;14.058;2024-03-08T08:45:07;22.15;;;14.10;;
325;SDS011;150;52.352;14.058;2024-03-08T08:47:34;18.52;;;11.82;;
325;SDS011;150;52.352;14.058;2024-03-08T08:50:01;19.17;;;12.80;;
325;SDS011;150;52.352;14.058;2024-03-08T08:52:29;19.38;;;11.48;;
325;SDS011;150;52.352;14.058;2024-03-08T08:54:56;19.92;;;11.77;;
325;SDS011;150;52.352;14.058;2024-03-08T08:57:23;21.20;;;13.45;;
325;SDS011;150;52.352;14.058;2024-03-08T08:59:50;16.20;;;13.07;;
325;SDS011;150;52.352;14.058;2024-03-08T09:02:16;21.30;;;13.13;;
325;SDS011;150;52.352;14.058;2024-03-08T09:04:45;22.48;;;12.23;;
325;SDS011;150;52.352;14.058;2024-03-08T09:07:12;20.35;;;12.75;;
325;SDS011;150;52.352;14.058;2024-03-08T09:09:39;17.88;;;10.85;;
325;SDS011;150;52.352;14.058;2024-03-08T09:12:09;19.00;;;12.43;;
325;SDS011;150;52.352;14.058;2024-03-08T09:14:38;22.02;;;12.65;;
325;SDS011;150;52.352;14.058;2024-03-08T09:17:05;20.50;;;12.23;;
325;SDS011;150;52.352;14.058;2024-03-08T09:19:33;19.10;;;11.15;;
325;SDS011;150;52.352;14.058;2024-03-08T09:22:00;15.52;;;11.25;;
325;SDS011;150;52.352;14.058;2024-03-08T09:24:28;16.33;;;11.40;;
325;SDS011;150;52.352;14.058;2024-03-08T09:26:56;19.13;;;11.75;;
325;SDS011;150;52.352;14.058;2024-03-08T09:29:24;12.75;;;9.18;;
325;SDS011;150;52.352;14.058;2024-03-08T09:31:52;20.65;;;12.45;;
325;SDS011;150;52.352;14.058;2024-03-08T09:34:18;15.55;;;10.50;;
325;SDS011;150;52.352;14.058;2024-03-08T09:36:45;18.67;;;12.55;;
325;SDS011;150;52.352;14.058;2024-03-08T09:39:11;18.60;;;11.45;;
325;SDS011;150;52.352;14.058;2024-03-08T09:41:41;12.45;;;9.68;;
325;SDS011;150;52.352;14.058;2024-03-08T09:44:08;17.05;;;10.88;;
325;SDS011;150;52.352;14.058;2024-03-08T09:46:36;17.05;;;10.07;;
325;SDS011;150;52.352;14.058;2024-03-08T09:49:03;16.63;;;11.82;;
325;SDS011;150;52.352;14.058;2024-03-08T09:51:30;15.07;;;10.20;;
325;SDS011;150;52.352;14.058;2024-03-08T09:54:00;17.33;;;10.98;;
325;SDS011;150;52.352;14.058;2024-03-08T09:56:29;12.45;;;8.57;;
325;SDS011;150;52.352;14.058;2024-03-08T09:58:58;14.45;;;8.23;;
325;SDS011;150;52.352;14.058;2024-03-08T10:01:55;18.60;;;10.38;;
325;SDS011;150;52.352;14.058;2024-03-08T10:04:22;12.57;;;8.00;;
325;SDS011;150;52.352;14.058;2024-03-08T10:06:48;14.15;;;9.43;;
325;SDS011;150;52.352;14.058;2024-03-08T10:09:15;14.20;;;9.20;;
325;SDS011;150;52.352;14.058;2024-03-08T10:11:41;12.55;;;8.80;;
325;SDS011;150;52.352;14.058;2024-03-08T10:14:08;13.83;;;7.80;;
325;SDS011;150;52.352;14.058;2024-03-08T10:16:35;15.57;;;8.95;;
325;SDS011;150;52.352;14.058;2024-03-08T10:19:03;11.23;;;8.40;;
325;SDS011;150;52.352;14.058;2024-03-08T10:21:30;11.65;;;7.15;;
325;SDS011;150;52.352;14.058;2024-03-08T10:23:58;16.80;;;8.20;;
325;SDS011;150;52.352;14.058;2024-03-08T10:26:25;15.95;;;9.18;;
325;SDS011;150;52.352;14.058;2024-03-08T10:28:52;16.70;;;9.00;;
325;SDS011;150;52.352;14.058;2024-03-08T10:31:19;14.77;;;8.15;;
325;SDS011;150;52.352;14.058;2024-03-08T10:33:46;14.77;;;10.80;;
325;SDS011;150;52.352;14.058;2024-03-08T10:36:15;16.60;;;8.93;;
325;SDS011;150;52.352;14.058;2024-03-08T10:38:44;11.38;;;9.30;;
325;SDS011;150;52.352;14.058;2024-03-08T10:41:12;14.00;;;9.23;;
325;SDS011;150;52.352;14.058;2024-03-08T10:43:49;12.15;;;7.68;;
325;SDS011;150;52.352;14.058;2024-03-08T10:46:27;14.05;;;8.07;;
325;SDS011;150;52.352;14.058;2024-03-08T10:49:00;12.53;;;8.03;;
325;SDS011;150;52.352;14.058;2024-03-08T10:51:33;12.60;;;9.50;;
325;SDS011;150;52.352;14.058;2024-03-08T10:54:02;10.25;;;7.80;;
325;SDS011;150;52.352;14.058;2024-03-08T10:56:30;12.05;;;7.47;;
325;SDS011;150;52.352;14.058;2024-03-08T10:58:56;12.18;;;8.48;;
325;SDS011;150;52.352;14.058;2024-03-08T11:01:23;15.43;;;7.72;;
325;SDS011;150;52.352;14.058;2024-03-08T11:03:51;9.95;;;7.40;;
325;SDS011;150;52.352;14.058;2024-03-08T11:06:19;11.83;;;7.60;;
325;SDS011;150;52.352;14.058;2024-03-08T11:08:50;9.30;;;6.93;;
325;SDS011;150;52.352;14.058;2024-03-08T11:11:23;10.82;;;7.53;;
325;SDS011;150;52.352;14.058;2024-03-08T11:13:52;13.38;;;9.05;;
325;SDS011;150;52.352;14.058;2024-03-08T11:19:06;16.33;;;8.70;;
325;SDS011;150;52.352;14.058;2024-03-08T11:21:54;9.48;;;7.00;;
325;SDS011;150;52.352;14.058;2024-03-08T11:24:29;17.52;;;10.63;;
325;SDS011;150;52.352;14.058;2024-03-08T11:27:04;16.60;;;10.27;;
325;SDS011;150;52.352;14.058;2024-03-08T11:32:03;10.38;;;7.07;;
325;SDS011;150;52.352;14.058;2024-03-08T11:34:30;12.95;;;7.95;;
325;SDS011;150;52.352;14.058;2024-03-08T11:36:58;12.77;;;7.35;;
325;SDS011;150;52.352;14.058;2024-03-08T11:39:25;12.80;;;8.00;;
325;SDS011;150;52.352;14.058;2024-03-08T11:41:54;12.07;;;7.75;;
325;SDS011;150;52.352;14.058;2024-03-08T11:44:21;13.20;;;7.70;;
325;SDS011;150;52.352;14.058;2024-03-08T11:46:52;12.50;;;7.97;;
325;SDS011;150;52.352;14.058;2024-03-08T11:49:19;11.38;;;7.28;;
325;SDS011;150;52.352;14.058;2024-03-08T11:51:45;10.13;;;6.88;;
325;SDS011;150;52.352;14.058;2024-03-08T11:54:12;12.65;;;5.63;;
325;SDS011;150;52.352;14.058;2024-03-08T11:56:39;13.20;;;6.93;;
325;SDS011;150;52.352;14.058;2024-03-08T11:59:10;10.07;;;6.50;;
325;SDS011;150;52.352;14.058;2024-03-08T12:01:38;12.80;;;9.30;;
325;SDS011;150;52.352;14.058;2024-03-08T12:04:04;10.68;;;6.90;;
325;SDS011;150;52.352;14.058;2024-03-08T12:06:36;12.13;;;7.47;;
325;SDS011;150;52.352;14.058;2024-03-08T12:09:08;11.00;;;7.68;;
325;SDS011;150;52.352;14.058;2024-03-08T12:11:35;10.07;;;6.55;;
325;SDS011;150;52.352;14.058;2024-03-08T12:14:02;8.27;;;6.15;;
325;SDS011;150;52.352;14.058;2024-03-08T12:16:30;13.02;;;6.65;;
325;SDS011;150;52.352;14.058;2024-03-08T12:18:57;11.50;;;7.60;;
325;SDS011;150;52.352;14.058;2024-03-08T12:21:25;10.55;;;7.18;;
325;SDS011;150;52.352;14.058;2024-03-08T12:24:04;8.27;;;6.07;;
325;SDS011;150;52.352;14.058;2024-03-08T12:26:34;9.98;;;6.32;;
325;SDS011;150;52.352;14.058;2024-03-08T12:29:15;10.55;;;7.05;;
325;SDS011;150;52.352;14.058;2024-03-08T12:31:44;10.73;;;5.90;;
325;SDS011;150;52.352;14.058;2024-03-08T12:34:11;13.07;;;6.70;;
325;SDS011;150;52.352;14.058;2024-03-08T12:36:43;10.38;;;7.22;;
325;SDS011;150;52.352;14.058;2024-03-08T12:39:12;9.90;;;5.72;;
325;SDS011;150;52.352;14.058;2024-03-08T12:41:40;7.53;;;5.68;;
325;SDS011;150;52.352;14.058;2024-03-08T12:44:08;9.75;;;5.47;;
325;SDS011;150;52.352;14.058;2024-03-08T12:46:36;7.50;;;5.68;;
325;SDS011;150;52.352;14.058;2024-03-08T12:49:06;8.75;;;6.28;;
325;SDS011;150;52.352;14.058;2024-03-08T12:51:34;9.02;;;6.28;;
325;SDS011;150;52.352;14.058;2024-03-08T12:54:01;7.03;;;5.50;;
325;SDS011;150;52.352;14.058;2024-03-08T12:56:28;8.77;;;5.47;;
325;SDS011;150;52.352;14.058;2024-03-08T12:58:57;8.82;;;5.07;;
325;SDS011;150;52.352;14.058;2024-03-08T13:01:24;9.00;;;5.43;;
325;SDS011;150;52.352;14.058;2024-03-08T13:03:51;7.22;;;5.13;;
325;SDS011;150;52.352;14.058;2024-03-08T13:06:20;6.93;;;5.25;;
325;SDS011;150;52.352;14.058;2024-03-08T13:08:49;7.68;;;5.00;;
325;SDS011;150;52.352;14.058;2024-03-08T13:11:17;9.32;;;6.00;;
325;SDS011;150;52.352;14.058;2024-03-08T13:13:44;7.70;;;5.20;;
325;SDS011;150;52.352;14.058;2024-03-08T13:16:11;8.85;;;5.30;;
325;SDS011;150;52.352;14.058;2024-03-08T13:18:40;9.40;;;4.90;;
325;SDS011;150;52.352;14.058;2024-03-08T13:21:08;6.80;;;5.20;;
325;SDS011;150;52.352;14.058;2024-03-08T13:23:37;9.25;;;5.20;;
325;SDS011;150;52.352;14.058;2024-03-08T13:26:05;8.83;;;5.50;;
325;SDS011;150;52.352;14.058;2024-03-08T13:28:32;9.27;;;5.70;;
325;SDS011;150;52.352;14.058;2024-03-08T13:31:02;10.10;;;5.60;;
325;SDS011;150;52.352;14.058;2024-03-08T13:33:31;7.70;;;4.70;;
325;SDS011;150;52.352;14.058;2024-03-08T13:36:00;6.53;;;4.88;;
325;SDS011;150;52.352;14.058;2024-03-08T13:38:29;7.43;;;5.25;;
325;SDS011;150;52.352;14.058;2024-03-08T13:40:58;8.32;;;5.45;;
325;SDS011;150;52.352;14.058;2024-03-08T13:43:25;9.60;;;6.23;;
325;SDS011;150;52.352;14.058;2024-03-08T13:45:53;7.18;;;5.13;;
325;SDS011;150;52.352;14.058;2024-03-08T13:48:20;7.10;;;4.60;;
325;SDS011;150;52.352;14.058;2024-03-08T13:50:47;7.80;;;5.82;;
325;SDS011;150;52.352;14.058;2024-03-08T13:53:14;8.63;;;5.97;;
325;SDS011;150;52.352;14.058;2024-03-08T13:55:41;11.32;;;6.22;;
325;SDS011;150;52.352;14.058;2024-03-08T13:58:09;10.38;;;6.85;;
325;SDS011;150;52.352;14.058;2024-03-08T14:00:38;6.40;;;5.20;;
325;SDS011;150;52.352;14.058;2024-03-08T14:03:08;8.50;;;5.90;;
325;SDS011;150;52.352;14.058;2024-03-08T14:05:35;9.02;;;6.10;;
325;SDS011;150;52.352;14.058;2024-03-08T14:08:04;7.32;;;4.68;;
325;SDS011;150;52.352;14.058;2024-03-08T14:10:32;10.90;;;5.70;;
325;SDS011;150;52.352;14.058;2024-03-08T14:12:59;7.80;;;6.13;;
325;SDS011;150;52.352;14.058;2024-03-08T14:15:29;8.80;;;5.80;;
325;SDS011;150;52.352;14.058;2024-03-08T14:17:56;10.57;;;6.00;;
325;SDS011;150;52.352;14.058;2024-03-08T14:20:22;9.50;;;6.40;;
325;SDS011;150;52.352;14.058;2024-03-08T14:22:50;8.90;;;5.70;;
325;SDS011;150;52.352;14.058;2024-03-08T14:25:17;11.82;;;6.57;;
325;SDS011;150;52.352;14.058;2024-03-08T14:27:44;10.60;;;6.78;;
325;SDS011;150;52.352;14.058;2024-03-08T14:30:11;9.02;;;6.32;;
325;SDS011;150;52.352;14.058;2024-03-08T14:32:40;10.88;;;6.50;;
325;SDS011;150;52.352;14.058;2024-03-08T14:35:09;9.13;;;6.25;;
325;SDS011;150;52.352;14.058;2024-03-08T14:37:36;9.40;;;5.20;;
325;SDS011;150;52.352;14.058;2024-03-08T14:40:03;9.35;;;6.97;;
325;SDS011;150;52.352;14.058;2024-03-08T14:42:31;12.70;;;7.57;;
325;SDS011;150;52.352;14.058;2024-03-08T14:44:57;9.75;;;7.15;;
325;SDS011;150;52.352;14.058;2024-03-08T14:47:25;11.45;;;5.97;;
325;SDS011;150;52.352;14.058;2024-03-08T14:49:52;7.75;;;5.72;;
325;SDS011;150;52.352;14.058;2024-03-08T14:52:20;7.93;;;5.63;;
325;SDS011;150;52.352;14.058;2024-03-08T14:54:55;8.93;;;6.63;;
325;SDS011;150;52.352;14.058;2024-03-08T14:57:23;8.15;;;6.03;;
325;SDS011;150;52.352;14.058;2024-03-08T14:59:49;11.83;;;7.27;;
325;SDS011;150;52.352;14.058;2024-03-08T15:02:16;12.50;;;6.18;;
325;SDS011;150;52.352;14.058;2024-03-08T15:04:45;8.60;;;7.20;;
325;SDS011;150;52.352;14.058;2024-03-08T15:07:19;10.93;;;7.30;;
325;SDS011;150;52.352;14.058;2024-03-08T15:09:45;9.63;;;6.80;;
325;SDS011;150;52.352;14.058;2024-03-08T15:12:12;10.07;;;7.10;;
325;SDS011;150;52.352;14.058;2024-03-08T15:14:40;13.18;;;7.63;;
325;SDS011;150;52.352;14.058;2024-03-08T15:17:08;11.13;;;7.10;;
325;SDS011;150;52.352;14.058;2024-03-08T15:19:42;11.97;;;6.70;;
325;SDS011;150;52.352;14.058;2024-03-08T15:22:09;12.48;;;6.78;;